sensor_id;sensor_type;location;lat;lon;timestamp;temperature;humidity
26821;DHT22;37186;51.394;5.454;2023-02-21T00:02:03;10.90;86.10
26821;DHT22;37186;51.394;5.454;2023-02-21T00:05:22;10.90;85.20
26821;DHT22;37186;51.394;5.454;2023-02-21T00:08:41;10.90;85.30
26821;DHT22;37186;51.394;5.454;2023-02-21T00:12:00;10.90;85.50
26821;DHT22;37186;51.394;5.454;2023-02-21T00:15:19;10.90;85.40
26821;DHT22;37186;51.394;5.454;2023-02-21T00:18:39;10.90;85.30
26821;DHT22;37186;51.394;5.454;2023-02-21T00:21:58;10.90;85.30
26821;DHT22;37186;51.394;5.454;2023-02-21T00:25:17;10.90;85.40
26821;DHT22;37186;51.394;5.454;2023-02-21T00:28:36;10.90;85.30
26821;DHT22;37186;51.394;5.454;2023-02-21T00:31:55;10.90;85.40
26821;DHT22;37186;51.394;5.454;2023-02-21T00:35:14;10.80;85.40
26821;DHT22;37186;51.394;5.454;2023-02-21T00:38:36;10.80;85.40
26821;DHT22;37186;51.394;5.454;2023-02-21T00:41:55;10.90;85.50
26821;DHT22;37186;51.394;5.454;2023-02-21T00:45:14;10.80;85.40
26821;DHT22;37186;51.394;5.454;2023-02-21T00:48:33;10.80;85.50
26821;DHT22;37186;51.394;5.454;2023-02-21T00:51:53;10.80;85.40
26821;DHT22;37186;51.394;5.454;2023-02-21T00:55:12;10.80;85.40
26821;DHT22;37186;51.394;5.454;2023-02-21T00:58:32;10.80;85.40
26821;DHT22;37186;51.394;5.454;2023-02-21T01:01:51;10.80;85.40
26821;DHT22;37186;51.394;5.454;2023-02-21T01:05:10;10.80;85.40
26821;DHT22;37186;51.394;5.454;2023-02-21T01:08:29;10.80;85.60
26821;DHT22;37186;51.394;5.454;2023-02-21T01:11:48;10.80;85.50
26821;DHT22;37186;51.394;5.454;2023-02-21T01:15:07;10.80;85.40
26821;DHT22;37186;51.394;5.454;2023-02-21T01:18:27;10.80;85.50
26821;DHT22;37186;51.394;5.454;2023-02-21T01:21:46;10.80;85.50
26821;DHT22;37186;51.394;5.454;2023-02-21T01:25:05;10.70;85.50
26821;DHT22;37186;51.394;5.454;2023-02-21T01:28:24;10.80;85.60
26821;DHT22;37186;51.394;5.454;2023-02-21T01:31:44;10.70;85.40
26821;DHT22;37186;51.394;5.454;2023-02-21T01:35:03;10.70;85.50
26821;DHT22;37186;51.394;5.454;2023-02-21T01:38:23;10.70;85.50
26821;DHT22;37186;51.394;5.454;2023-02-21T01:41:41;10.70;85.60
26821;DHT22;37186;51.394;5.454;2023-02-21T01:48:39;10.70;85.60
26821;DHT22;37186;51.394;5.454;2023-02-21T01:51:59;10.60;85.60
26821;DHT22;37186;51.394;5.454;2023-02-21T01:55:19;10.60;85.60
26821;DHT22;37186;51.394;5.454;2023-02-21T01:58:38;10.60;85.50
26821;DHT22;37186;51.394;5.454;2023-02-21T02:05:29;10.60;85.60
26821;DHT22;37186;51.394;5.454;2023-02-21T02:08:48;10.60;85.70
26821;DHT22;37186;51.394;5.454;2023-02-21T02:15:42;10.60;85.70
26821;DHT22;37186;51.394;5.454;2023-02-21T02:19:16;10.60;85.80
26821;DHT22;37186;51.394;5.454;2023-02-21T02:30:00;10.60;85.80
26821;DHT22;37186;51.394;5.454;2023-02-21T02:36:59;10.60;85.80
26821;DHT22;37186;51.394;5.454;2023-02-21T02:40:14;10.50;85.70
26821;DHT22;37186;51.394;5.454;2023-02-21T02:43:32;10.60;85.80
26821;DHT22;37186;51.394;5.454;2023-02-21T02:46:37;10.50;85.80
26821;DHT22;37186;51.394;5.454;2023-02-21T02:49:40;10.60;85.90
26821;DHT22;37186;51.394;5.454;2023-02-21T02:52:50;10.60;85.90
26821;DHT22;37186;51.394;5.454;2023-02-21T02:55:56;10.60;85.80
26821;DHT22;37186;51.394;5.454;2023-02-21T02:59:02;10.50;85.70
26821;DHT22;37186;51.394;5.454;2023-02-21T03:12:17;10.60;85.80
26821;DHT22;37186;51.394;5.454;2023-02-21T03:18:45;10.50;85.80
26821;DHT22;37186;51.394;5.454;2023-02-21T03:22:09;10.50;85.90
26821;DHT22;37186;51.394;5.454;2023-02-21T03:25:10;10.50;85.80
26821;DHT22;37186;51.394;5.454;2023-02-21T03:28:13;10.50;85.80
26821;DHT22;37186;51.394;5.454;2023-02-21T03:31:16;10.50;85.70
26821;DHT22;37186;51.394;5.454;2023-02-21T03:34:18;10.50;85.80
26821;DHT22;37186;51.394;5.454;2023-02-21T03:37:33;10.50;85.80
26821;DHT22;37186;51.394;5.454;2023-02-21T03:40:34;10.50;85.80
26821;DHT22;37186;51.394;5.454;2023-02-21T03:43:34;10.50;85.80
26821;DHT22;37186;51.394;5.454;2023-02-21T03:46:35;10.50;85.80
26821;DHT22;37186;51.394;5.454;2023-02-21T03:49:35;10.50;85.90
26821;DHT22;37186;51.394;5.454;2023-02-21T03:52:36;10.50;85.80
26821;DHT22;37186;51.394;5.454;2023-02-21T03:55:37;10.50;85.80
26821;DHT22;37186;51.394;5.454;2023-02-21T03:58:38;10.50;85.80
26821;DHT22;37186;51.394;5.454;2023-02-21T04:01:38;10.50;85.80
26821;DHT22;37186;51.394;5.454;2023-02-21T04:04:39;10.50;85.80
26821;DHT22;37186;51.394;5.454;2023-02-21T04:07:40;10.50;85.80
26821;DHT22;37186;51.394;5.454;2023-02-21T04:10:40;10.60;85.90
26821;DHT22;37186;51.394;5.454;2023-02-21T04:13:41;10.50;85.80
26821;DHT22;37186;51.394;5.454;2023-02-21T04:16:42;10.50;85.80
26821;DHT22;37186;51.394;5.454;2023-02-21T04:19:42;10.60;85.80
26821;DHT22;37186;51.394;5.454;2023-02-21T04:22:43;10.50;86.10
26821;DHT22;37186;51.394;5.454;2023-02-21T04:25:44;10.60;85.90
26821;DHT22;37186;51.394;5.454;2023-02-21T04:28:44;10.50;85.80
26821;DHT22;37186;51.394;5.454;2023-02-21T04:31:45;10.60;85.80
26821;DHT22;37186;51.394;5.454;2023-02-21T04:34:45;10.50;85.80
26821;DHT22;37186;51.394;5.454;2023-02-21T04:37:46;10.60;85.90
26821;DHT22;37186;51.394;5.454;2023-02-21T04:40:47;10.50;85.80
26821;DHT22;37186;51.394;5.454;2023-02-21T04:43:47;10.50;85.80
26821;DHT22;37186;51.394;5.454;2023-02-21T04:46:48;10.60;85.90
26821;DHT22;37186;51.394;5.454;2023-02-21T04:49:48;10.50;85.90
26821;DHT22;37186;51.394;5.454;2023-02-21T04:52:50;10.50;85.80
26821;DHT22;37186;51.394;5.454;2023-02-21T04:55:51;10.50;85.80
26821;DHT22;37186;51.394;5.454;2023-02-21T04:58:52;10.50;85.90
26821;DHT22;37186;51.394;5.454;2023-02-21T05:01:52;10.50;85.90
26821;DHT22;37186;51.394;5.454;2023-02-21T05:04:53;10.50;86.00
26821;DHT22;37186;51.394;5.454;2023-02-21T05:07:53;10.50;85.80
26821;DHT22;37186;51.394;5.454;2023-02-21T05:10:54;10.50;85.80
26821;DHT22;37186;51.394;5.454;2023-02-21T05:13:54;10.50;86.70
26821;DHT22;37186;51.394;5.454;2023-02-21T05:16:55;10.50;85.90
26821;DHT22;37186;51.394;5.454;2023-02-21T05:19:56;10.50;85.90
26821;DHT22;37186;51.394;5.454;2023-02-21T05:22:56;10.50;85.80
26821;DHT22;37186;51.394;5.454;2023-02-21T05:25:57;10.50;85.80
26821;DHT22;37186;51.394;5.454;2023-02-21T05:28:57;10.50;85.90
26821;DHT22;37186;51.394;5.454;2023-02-21T05:31:58;10.60;86.10
26821;DHT22;37186;51.394;5.454;2023-02-21T05:34:58;10.50;85.90
26821;DHT22;37186;51.394;5.454;2023-02-21T05:37:59;10.50;86.10
26821;DHT22;37186;51.394;5.454;2023-02-21T05:40:59;10.50;85.90
26821;DHT22;37186;51.394;5.454;2023-02-21T05:44:01;10.50;86.60
26821;DHT22;37186;51.394;5.454;2023-02-21T05:47:02;10.50;85.90
26821;DHT22;37186;51.394;5.454;2023-02-21T05:50:04;10.50;85.90
26821;DHT22;37186;51.394;5.454;2023-02-21T05:53:05;10.50;85.90
26821;DHT22;37186;51.394;5.454;2023-02-21T05:56:06;10.50;85.80
26821;DHT22;37186;51.394;5.454;2023-02-21T05:59:07;10.50;85.80
26821;DHT22;37186;51.394;5.454;2023-02-21T06:02:08;10.50;85.80
26821;DHT22;37186;51.394;5.454;2023-02-21T06:05:08;10.50;85.80
26821;DHT22;37186;51.394;5.454;2023-02-21T06:08:10;10.50;85.80
26821;DHT22;37186;51.394;5.454;2023-02-21T06:11:10;10.50;86.10
26821;DHT22;37186;51.394;5.454;2023-02-21T06:14:19;10.50;85.90
26821;DHT22;37186;51.394;5.454;2023-02-21T06:17:20;10.50;86.00
26821;DHT22;37186;51.394;5.454;2023-02-21T06:20:20;10.50;85.80
26821;DHT22;37186;51.394;5.454;2023-02-21T06:23:21;10.50;85.80
26821;DHT22;37186;51.394;5.454;2023-02-21T06:26:22;10.50;85.90
26821;DHT22;37186;51.394;5.454;2023-02-21T06:29:22;10.50;85.90
26821;DHT22;37186;51.394;5.454;2023-02-21T06:32:23;10.50;85.90
26821;DHT22;37186;51.394;5.454;2023-02-21T06:35:24;10.50;85.90
26821;DHT22;37186;51.394;5.454;2023-02-21T06:38:25;10.50;85.90
26821;DHT22;37186;51.394;5.454;2023-02-21T06:41:28;10.50;85.90
26821;DHT22;37186;51.394;5.454;2023-02-21T06:44:28;10.50;85.90
26821;DHT22;37186;51.394;5.454;2023-02-21T06:47:29;10.50;85.90
26821;DHT22;37186;51.394;5.454;2023-02-21T06:50:29;10.40;85.90
26821;DHT22;37186;51.394;5.454;2023-02-21T06:53:30;10.50;85.90
26821;DHT22;37186;51.394;5.454;2023-02-21T06:56:31;10.40;85.80
26821;DHT22;37186;51.394;5.454;2023-02-21T06:59:32;10.50;85.80
26821;DHT22;37186;51.394;5.454;2023-02-21T07:02:32;10.50;85.90
26821;DHT22;37186;51.394;5.454;2023-02-21T07:05:33;10.50;86.10
26821;DHT22;37186;51.394;5.454;2023-02-21T07:08:34;10.40;86.10
26821;DHT22;37186;51.394;5.454;2023-02-21T07:11:35;10.40;85.90
26821;DHT22;37186;51.394;5.454;2023-02-21T07:14:36;10.40;85.80
26821;DHT22;37186;51.394;5.454;2023-02-21T07:17:36;10.50;85.90
26821;DHT22;37186;51.394;5.454;2023-02-21T07:20:37;10.50;85.90
26821;DHT22;37186;51.394;5.454;2023-02-21T07:23:37;10.50;86.00
26821;DHT22;37186;51.394;5.454;2023-02-21T07:26:38;10.50;86.00
26821;DHT22;37186;51.394;5.454;2023-02-21T07:29:38;10.40;85.90
26821;DHT22;37186;51.394;5.454;2023-02-21T07:32:39;10.50;86.00
26821;DHT22;37186;51.394;5.454;2023-02-21T07:35:39;10.40;85.90
26821;DHT22;37186;51.394;5.454;2023-02-21T07:38:40;10.40;85.90
26821;DHT22;37186;51.394;5.454;2023-02-21T07:41:41;10.40;85.90
26821;DHT22;37186;51.394;5.454;2023-02-21T07:44:41;10.40;85.80
26821;DHT22;37186;51.394;5.454;2023-02-21T07:47:43;10.40;85.90
26821;DHT22;37186;51.394;5.454;2023-02-21T07:50:45;10.40;85.90
26821;DHT22;37186;51.394;5.454;2023-02-21T07:53:45;10.40;86.10
26821;DHT22;37186;51.394;5.454;2023-02-21T07:56:47;10.40;86.00
26821;DHT22;37186;51.394;5.454;2023-02-21T07:59:48;10.40;85.90
26821;DHT22;37186;51.394;5.454;2023-02-21T08:02:49;10.40;86.00
26821;DHT22;37186;51.394;5.454;2023-02-21T08:05:50;10.40;85.90
26821;DHT22;37186;51.394;5.454;2023-02-21T08:08:50;10.40;86.00
26821;DHT22;37186;51.394;5.454;2023-02-21T08:11:51;10.40;85.90
26821;DHT22;37186;51.394;5.454;2023-02-21T08:14:51;10.40;86.10
26821;DHT22;37186;51.394;5.454;2023-02-21T08:17:52;10.40;86.00
26821;DHT22;37186;51.394;5.454;2023-02-21T08:20:54;10.40;86.00
26821;DHT22;37186;51.394;5.454;2023-02-21T08:23:55;10.40;86.10
26821;DHT22;37186;51.394;5.454;2023-02-21T08:26:56;10.40;86.00
26821;DHT22;37186;51.394;5.454;2023-02-21T08:29:57;10.40;86.00
26821;DHT22;37186;51.394;5.454;2023-02-21T08:32:57;10.40;86.20
26821;DHT22;37186;51.394;5.454;2023-02-21T08:35:58;10.40;86.00
26821;DHT22;37186;51.394;5.454;2023-02-21T08:38:58;10.40;86.20
26821;DHT22;37186;51.394;5.454;2023-02-21T08:41:59;10.40;86.10
26821;DHT22;37186;51.394;5.454;2023-02-21T08:44:59;10.40;86.00
26821;DHT22;37186;51.394;5.454;2023-02-21T08:48:00;10.40;86.40
26821;DHT22;37186;51.394;5.454;2023-02-21T08:51:02;10.40;86.20
26821;DHT22;37186;51.394;5.454;2023-02-21T08:54:03;10.40;86.10
26821;DHT22;37186;51.394;5.454;2023-02-21T08:57:03;10.30;86.10
26821;DHT22;37186;51.394;5.454;2023-02-21T09:00:06;10.40;86.30
26821;DHT22;37186;51.394;5.454;2023-02-21T09:03:10;10.40;86.40
26821;DHT22;37186;51.394;5.454;2023-02-21T09:06:11;10.40;86.20
26821;DHT22;37186;51.394;5.454;2023-02-21T09:09:12;10.40;86.20
26821;DHT22;37186;51.394;5.454;2023-02-21T09:12:12;10.40;86.10
26821;DHT22;37186;51.394;5.454;2023-02-21T09:15:14;10.40;86.20
26821;DHT22;37186;51.394;5.454;2023-02-21T09:18:15;10.40;86.20
26821;DHT22;37186;51.394;5.454;2023-02-21T09:21:16;10.40;86.20
26821;DHT22;37186;51.394;5.454;2023-02-21T09:24:16;10.40;86.30
26821;DHT22;37186;51.394;5.454;2023-02-21T09:27:17;10.40;86.20
26821;DHT22;37186;51.394;5.454;2023-02-21T09:30:20;10.40;86.20
26821;DHT22;37186;51.394;5.454;2023-02-21T09:33:22;10.40;86.20
26821;DHT22;37186;51.394;5.454;2023-02-21T09:36:23;10.40;86.20
26821;DHT22;37186;51.394;5.454;2023-02-21T09:39:24;10.40;86.40
26821;DHT22;37186;51.394;5.454;2023-02-21T09:42:29;10.40;86.20
26821;DHT22;37186;51.394;5.454;2023-02-21T09:45:32;10.50;86.30
26821;DHT22;37186;51.394;5.454;2023-02-21T09:48:34;10.40;86.20
26821;DHT22;37186;51.394;5.454;2023-02-21T09:51:35;10.50;86.40
26821;DHT22;37186;51.394;5.454;2023-02-21T09:54:43;10.50;86.40
26821;DHT22;37186;51.394;5.454;2023-02-21T09:57:45;10.50;86.40
26821;DHT22;37186;51.394;5.454;2023-02-21T10:00:46;10.50;86.30
26821;DHT22;37186;51.394;5.454;2023-02-21T10:04:06;10.50;86.40
26821;DHT22;37186;51.394;5.454;2023-02-21T10:10:46;10.50;86.30
26821;DHT22;37186;51.394;5.454;2023-02-21T10:23:40;10.60;86.40
26821;DHT22;37186;51.394;5.454;2023-02-21T10:26:51;10.60;86.40
26821;DHT22;37186;51.394;5.454;2023-02-21T10:30:02;10.60;86.40
26821;DHT22;37186;51.394;5.454;2023-02-21T10:33:06;10.60;86.40
26821;DHT22;37186;51.394;5.454;2023-02-21T10:36:12;10.60;86.40
26821;DHT22;37186;51.394;5.454;2023-02-21T10:39:19;10.60;86.30
26821;DHT22;37186;51.394;5.454;2023-02-21T10:42:44;10.60;86.30
26821;DHT22;37186;51.394;5.454;2023-02-21T10:46:02;10.60;86.40
26821;DHT22;37186;51.394;5.454;2023-02-21T10:49:21;10.60;86.50
26821;DHT22;37186;51.394;5.454;2023-02-21T10:52:23;10.60;86.40
26821;DHT22;37186;51.394;5.454;2023-02-21T10:55:24;10.60;86.40
26821;DHT22;37186;51.394;5.454;2023-02-21T10:58:26;10.60;86.40
26821;DHT22;37186;51.394;5.454;2023-02-21T11:04:34;10.70;86.40
26821;DHT22;37186;51.394;5.454;2023-02-21T11:07:34;10.70;86.40
26821;DHT22;37186;51.394;5.454;2023-02-21T11:10:43;10.70;86.50
26821;DHT22;37186;51.394;5.454;2023-02-21T11:13:44;10.70;87.20
26821;DHT22;37186;51.394;5.454;2023-02-21T11:16:44;10.70;86.40
26821;DHT22;37186;51.394;5.454;2023-02-21T11:19:56;10.70;86.40
26821;DHT22;37186;51.394;5.454;2023-02-21T11:22:56;10.70;86.40
26821;DHT22;37186;51.394;5.454;2023-02-21T11:26:09;10.80;86.40
26821;DHT22;37186;51.394;5.454;2023-02-21T11:29:17;10.80;86.40
26821;DHT22;37186;51.394;5.454;2023-02-21T11:32:31;10.80;86.40
26821;DHT22;37186;51.394;5.454;2023-02-21T11:35:37;10.70;86.40
26821;DHT22;37186;51.394;5.454;2023-02-21T11:39:03;10.80;86.40
26821;DHT22;37186;51.394;5.454;2023-02-21T11:42:31;10.80;86.40
26821;DHT22;37186;51.394;5.454;2023-02-21T11:45:36;10.80;86.40
26821;DHT22;37186;51.394;5.454;2023-02-21T11:48:50;10.80;86.40
26821;DHT22;37186;51.394;5.454;2023-02-21T11:52:01;10.80;86.40
26821;DHT22;37186;51.394;5.454;2023-02-21T11:55:03;10.80;86.60
26821;DHT22;37186;51.394;5.454;2023-02-21T11:58:14;10.80;86.40
26821;DHT22;37186;51.394;5.454;2023-02-21T12:01:38;10.80;86.50
26821;DHT22;37186;51.394;5.454;2023-02-21T12:08:35;10.90;86.40
26821;DHT22;37186;51.394;5.454;2023-02-21T12:11:58;10.90;86.40
26821;DHT22;37186;51.394;5.454;2023-02-21T12:15:23;10.90;86.40
26821;DHT22;37186;51.394;5.454;2023-02-21T12:21:50;10.90;86.40
26821;DHT22;37186;51.394;5.454;2023-02-21T12:25:19;10.90;86.30
26821;DHT22;37186;51.394;5.454;2023-02-21T12:42:28;11.00;86.30
26821;DHT22;37186;51.394;5.454;2023-02-21T12:49:22;11.00;86.40
26821;DHT22;37186;51.394;5.454;2023-02-21T12:52:35;11.00;86.30
26821;DHT22;37186;51.394;5.454;2023-02-21T12:55:44;11.00;86.30
26821;DHT22;37186;51.394;5.454;2023-02-21T12:59:03;11.00;86.30
26821;DHT22;37186;51.394;5.454;2023-02-21T13:02:18;11.00;86.30
26821;DHT22;37186;51.394;5.454;2023-02-21T13:05:37;11.10;86.30
26821;DHT22;37186;51.394;5.454;2023-02-21T13:08:55;11.10;86.20
26821;DHT22;37186;51.394;5.454;2023-02-21T13:12:08;11.10;86.20
26821;DHT22;37186;51.394;5.454;2023-02-21T13:15:26;11.10;86.30
26821;DHT22;37186;51.394;5.454;2023-02-21T13:18:36;11.10;86.20
26821;DHT22;37186;51.394;5.454;2023-02-21T13:24:55;11.10;86.20
26821;DHT22;37186;51.394;5.454;2023-02-21T13:28:21;11.10;86.20
26821;DHT22;37186;51.394;5.454;2023-02-21T13:31:25;11.10;86.20
26821;DHT22;37186;51.394;5.454;2023-02-21T13:34:29;11.10;86.20
26821;DHT22;37186;51.394;5.454;2023-02-21T13:37:32;11.10;86.10
26821;DHT22;37186;51.394;5.454;2023-02-21T13:40:51;11.10;86.20
26821;DHT22;37186;51.394;5.454;2023-02-21T13:43:53;11.10;86.10
26821;DHT22;37186;51.394;5.454;2023-02-21T13:53:32;11.10;86.10
26821;DHT22;37186;51.394;5.454;2023-02-21T13:56:52;11.10;86.10
26821;DHT22;37186;51.394;5.454;2023-02-21T13:59:52;11.10;85.90
26821;DHT22;37186;51.394;5.454;2023-02-21T14:12:14;11.10;86.00
26821;DHT22;37186;51.394;5.454;2023-02-21T14:15:15;11.10;86.00
26821;DHT22;37186;51.394;5.454;2023-02-21T14:18:30;11.10;85.90
26821;DHT22;37186;51.394;5.454;2023-02-21T14:24:37;11.00;85.80
26821;DHT22;37186;51.394;5.454;2023-02-21T14:27:38;11.00;85.80
26821;DHT22;37186;51.394;5.454;2023-02-21T14:30:39;11.00;85.90
26821;DHT22;37186;51.394;5.454;2023-02-21T14:33:40;10.90;85.90
26821;DHT22;37186;51.394;5.454;2023-02-21T14:36:42;11.00;85.90
26821;DHT22;37186;51.394;5.454;2023-02-21T14:39:51;10.90;85.90
26821;DHT22;37186;51.394;5.454;2023-02-21T14:52:54;10.80;85.90
26821;DHT22;37186;51.394;5.454;2023-02-21T14:59:41;10.80;85.80
26821;DHT22;37186;51.394;5.454;2023-02-21T15:06:06;10.80;85.90
26821;DHT22;37186;51.394;5.454;2023-02-21T15:09:17;10.80;85.90
26821;DHT22;37186;51.394;5.454;2023-02-21T15:12:18;10.80;85.90
26821;DHT22;37186;51.394;5.454;2023-02-21T15:15:39;10.80;85.90
26821;DHT22;37186;51.394;5.454;2023-02-21T15:19:00;10.80;85.90
26821;DHT22;37186;51.394;5.454;2023-02-21T15:22:18;10.80;85.90
26821;DHT22;37186;51.394;5.454;2023-02-21T15:25:19;10.80;85.90
26821;DHT22;37186;51.394;5.454;2023-02-21T15:31:22;10.80;85.90
26821;DHT22;37186;51.394;5.454;2023-02-21T15:34:31;10.80;85.90
26821;DHT22;37186;51.394;5.454;2023-02-21T15:37:36;10.80;85.90
26821;DHT22;37186;51.394;5.454;2023-02-21T15:40:38;10.80;85.90
26821;DHT22;37186;51.394;5.454;2023-02-21T15:43:47;10.70;85.90
26821;DHT22;37186;51.394;5.454;2023-02-21T15:50:12;10.70;85.70
26821;DHT22;37186;51.394;5.454;2023-02-21T15:53:19;10.70;86.60
26821;DHT22;37186;51.394;5.454;2023-02-21T15:56:23;10.70;85.80
26821;DHT22;37186;51.394;5.454;2023-02-21T15:59:26;10.70;85.80
26821;DHT22;37186;51.394;5.454;2023-02-21T16:02:27;10.70;85.80
26821;DHT22;37186;51.394;5.454;2023-02-21T16:05:29;10.70;85.70
26821;DHT22;37186;51.394;5.454;2023-02-21T16:08:30;10.70;85.80
26821;DHT22;37186;51.394;5.454;2023-02-21T16:11:45;10.60;85.70
26821;DHT22;37186;51.394;5.454;2023-02-21T16:18:09;10.60;86.60
26821;DHT22;37186;51.394;5.454;2023-02-21T16:21:22;10.60;85.70
26821;DHT22;37186;51.394;5.454;2023-02-21T16:24:30;10.60;85.80
26821;DHT22;37186;51.394;5.454;2023-02-21T16:27:31;10.60;85.70
26821;DHT22;37186;51.394;5.454;2023-02-21T16:30:32;10.60;85.80
26821;DHT22;37186;51.394;5.454;2023-02-21T16:33:35;10.60;85.70
26821;DHT22;37186;51.394;5.454;2023-02-21T16:36:36;10.60;85.80
26821;DHT22;37186;51.394;5.454;2023-02-21T16:39:39;10.50;85.70
26821;DHT22;37186;51.394;5.454;2023-02-21T16:42:40;10.50;85.80
26821;DHT22;37186;51.394;5.454;2023-02-21T16:45:41;10.50;85.70
26821;DHT22;37186;51.394;5.454;2023-02-21T16:48:41;10.50;85.70
26821;DHT22;37186;51.394;5.454;2023-02-21T16:51:42;10.50;85.80
26821;DHT22;37186;51.394;5.454;2023-02-21T16:54:43;10.50;85.80
26821;DHT22;37186;51.394;5.454;2023-02-21T16:57:52;10.50;85.80
26821;DHT22;37186;51.394;5.454;2023-02-21T17:01:03;10.50;85.80
26821;DHT22;37186;51.394;5.454;2023-02-21T17:04:16;10.50;85.70
26821;DHT22;37186;51.394;5.454;2023-02-21T17:07:17;10.50;85.80
26821;DHT22;37186;51.394;5.454;2023-02-21T17:10:18;10.50;85.80
26821;DHT22;37186;51.394;5.454;2023-02-21T17:13:19;10.50;85.80
26821;DHT22;37186;51.394;5.454;2023-02-21T17:16:19;10.50;85.80
26821;DHT22;37186;51.394;5.454;2023-02-21T17:19:20;10.50;85.80
26821;DHT22;37186;51.394;5.454;2023-02-21T17:22:20;10.50;85.80
26821;DHT22;37186;51.394;5.454;2023-02-21T17:25:21;10.50;85.80
26821;DHT22;37186;51.394;5.454;2023-02-21T17:28:22;10.50;85.80
26821;DHT22;37186;51.394;5.454;2023-02-21T17:31:22;10.50;85.80
26821;DHT22;37186;51.394;5.454;2023-02-21T17:34:23;10.50;85.80
26821;DHT22;37186;51.394;5.454;2023-02-21T17:37:24;10.50;85.80
26821;DHT22;37186;51.394;5.454;2023-02-21T17:40:24;10.50;85.80
26821;DHT22;37186;51.394;5.454;2023-02-21T17:43:25;10.50;85.80
26821;DHT22;37186;51.394;5.454;2023-02-21T17:46:25;10.50;85.80
26821;DHT22;37186;51.394;5.454;2023-02-21T17:49:27;10.50;85.80
26821;DHT22;37186;51.394;5.454;2023-02-21T17:52:28;10.50;85.70
26821;DHT22;37186;51.394;5.454;2023-02-21T17:55:29;10.50;85.80
26821;DHT22;37186;51.394;5.454;2023-02-21T17:58:30;10.50;85.70
26821;DHT22;37186;51.394;5.454;2023-02-21T18:01:30;10.50;85.70
26821;DHT22;37186;51.394;5.454;2023-02-21T18:04:31;10.50;85.70
26821;DHT22;37186;51.394;5.454;2023-02-21T18:07:32;10.50;85.70
26821;DHT22;37186;51.394;5.454;2023-02-21T18:10:34;10.50;85.80
26821;DHT22;37186;51.394;5.454;2023-02-21T18:13:34;10.50;85.70
26821;DHT22;37186;51.394;5.454;2023-02-21T18:16:35;10.50;85.80
26821;DHT22;37186;51.394;5.454;2023-02-21T18:19:35;10.50;85.80
26821;DHT22;37186;51.394;5.454;2023-02-21T18:22:37;10.50;85.70
26821;DHT22;37186;51.394;5.454;2023-02-21T18:25:38;10.50;85.70
26821;DHT22;37186;51.394;5.454;2023-02-21T18:28:39;10.50;85.70
26821;DHT22;37186;51.394;5.454;2023-02-21T18:31:39;10.50;85.70
26821;DHT22;37186;51.394;5.454;2023-02-21T18:34:41;10.50;85.70
26821;DHT22;37186;51.394;5.454;2023-02-21T18:37:42;10.50;85.70
26821;DHT22;37186;51.394;5.454;2023-02-21T18:40:45;10.50;85.70
26821;DHT22;37186;51.394;5.454;2023-02-21T18:43:46;10.50;85.70
26821;DHT22;37186;51.394;5.454;2023-02-21T18:46:50;10.50;85.70
26821;DHT22;37186;51.394;5.454;2023-02-21T18:49:53;10.50;85.70
26821;DHT22;37186;51.394;5.454;2023-02-21T18:52:54;10.50;85.70
26821;DHT22;37186;51.394;5.454;2023-02-21T18:55:55;10.50;86.40
26821;DHT22;37186;51.394;5.454;2023-02-21T18:58:57;10.50;85.60
26821;DHT22;37186;51.394;5.454;2023-02-21T19:01:57;10.50;85.60
26821;DHT22;37186;51.394;5.454;2023-02-21T19:04:58;10.40;85.50
26821;DHT22;37186;51.394;5.454;2023-02-21T19:07:58;10.50;85.70
26821;DHT22;37186;51.394;5.454;2023-02-21T19:10:59;10.50;85.70
26821;DHT22;37186;51.394;5.454;2023-02-21T19:13:59;10.40;85.60
26821;DHT22;37186;51.394;5.454;2023-02-21T19:17:00;10.50;85.70
26821;DHT22;37186;51.394;5.454;2023-02-21T19:20:01;10.50;85.70
26821;DHT22;37186;51.394;5.454;2023-02-21T19:23:03;10.50;85.70
26821;DHT22;37186;51.394;5.454;2023-02-21T19:26:05;10.40;85.50
26821;DHT22;37186;51.394;5.454;2023-02-21T19:29:05;10.40;85.60
26821;DHT22;37186;51.394;5.454;2023-02-21T19:32:06;10.40;85.50
26821;DHT22;37186;51.394;5.454;2023-02-21T19:35:07;10.40;85.60
26821;DHT22;37186;51.394;5.454;2023-02-21T19:38:07;10.40;85.60
26821;DHT22;37186;51.394;5.454;2023-02-21T19:41:08;10.40;85.50
26821;DHT22;37186;51.394;5.454;2023-02-21T19:44:09;10.40;85.50
26821;DHT22;37186;51.394;5.454;2023-02-21T19:47:09;10.40;85.50
26821;DHT22;37186;51.394;5.454;2023-02-21T19:50:11;10.40;85.60
26821;DHT22;37186;51.394;5.454;2023-02-21T19:53:12;10.40;85.50
26821;DHT22;37186;51.394;5.454;2023-02-21T19:56:13;10.40;85.60
26821;DHT22;37186;51.394;5.454;2023-02-21T19:59:14;10.40;85.50
26821;DHT22;37186;51.394;5.454;2023-02-21T20:02:15;10.40;85.50
26821;DHT22;37186;51.394;5.454;2023-02-21T20:05:16;10.40;85.50
26821;DHT22;37186;51.394;5.454;2023-02-21T20:08:17;10.40;85.50
26821;DHT22;37186;51.394;5.454;2023-02-21T20:11:18;10.40;85.50
26821;DHT22;37186;51.394;5.454;2023-02-21T20:14:19;10.40;85.50
26821;DHT22;37186;51.394;5.454;2023-02-21T20:17:19;10.40;85.50
26821;DHT22;37186;51.394;5.454;2023-02-21T20:20:20;10.40;85.50
26821;DHT22;37186;51.394;5.454;2023-02-21T20:23:20;10.30;85.50
26821;DHT22;37186;51.394;5.454;2023-02-21T20:26:21;10.40;85.50
26821;DHT22;37186;51.394;5.454;2023-02-21T20:29:24;10.40;85.50
26821;DHT22;37186;51.394;5.454;2023-02-21T20:32:26;10.40;85.50
26821;DHT22;37186;51.394;5.454;2023-02-21T20:35:27;10.40;85.50
26821;DHT22;37186;51.394;5.454;2023-02-21T20:38:28;10.30;85.50
26821;DHT22;37186;51.394;5.454;2023-02-21T20:41:31;10.30;85.50
26821;DHT22;37186;51.394;5.454;2023-02-21T20:44:34;10.30;85.50
26821;DHT22;37186;51.394;5.454;2023-02-21T20:47:35;10.30;85.50
26821;DHT22;37186;51.394;5.454;2023-02-21T20:50:36;10.30;85.50
26821;DHT22;37186;51.394;5.454;2023-02-21T20:53:37;10.30;85.40
26821;DHT22;37186;51.394;5.454;2023-02-21T20:56:39;10.30;85.50
26821;DHT22;37186;51.394;5.454;2023-02-21T20:59:40;10.30;85.50
26821;DHT22;37186;51.394;5.454;2023-02-21T21:02:42;10.30;85.50
26821;DHT22;37186;51.394;5.454;2023-02-21T21:05:43;10.30;85.50
26821;DHT22;37186;51.394;5.454;2023-02-21T21:08:44;10.30;85.50
26821;DHT22;37186;51.394;5.454;2023-02-21T21:11:45;10.30;85.50
26821;DHT22;37186;51.394;5.454;2023-02-21T21:14:47;10.30;86.20
26821;DHT22;37186;51.394;5.454;2023-02-21T21:17:48;10.20;85.50
26821;DHT22;37186;51.394;5.454;2023-02-21T21:20:49;10.20;85.30
26821;DHT22;37186;51.394;5.454;2023-02-21T21:23:50;10.20;85.50
26821;DHT22;37186;51.394;5.454;2023-02-21T21:26:51;10.20;85.40
26821;DHT22;37186;51.394;5.454;2023-02-21T21:29:52;10.20;85.40
26821;DHT22;37186;51.394;5.454;2023-02-21T21:32:53;10.20;85.40
26821;DHT22;37186;51.394;5.454;2023-02-21T21:35:53;10.20;85.40